Time;durP1;ratioP1;P1;durP2;ratioP2;P2;SDS_P1;SDS_P2;PMS_P1;PMS_P2;Temp;Humidity;BMP_temperature;BMP_pressure;BME280_temperature;BME280_humidity;BME280_pressure;Samples;Min_cycle;Max_cycle;Signal;HPM_P1;HPM_P2
2022/12/17 13:07:27;;;;;;;15.60;14.30;;;;;;;21.86;40.94;95037.94;6213072;28;103179;-68
2022/12/17 13:10:32;;;;;;;15.77;14.57;;;;;;;21.87;41.27;95036.84;6203045;28;103850;-68
2022/12/17 13:13:39;;;;;;;15.70;14.40;;;;;;;21.87;41.51;95016.31;6213770;28;104242;-69
2022/12/17 13:16:53;;;;;;;15.43;14.13;;;;;;;21.81;41.00;95022.81;6213264;28;103200;-68
2022/12/17 13:20:03;;;;;;;14.70;13.50;;;;;;;21.79;41.18;95027.66;6213710;28;103042;-66
2022/12/17 13:23:26;;;;;;;14.37;13.20;;;;;;;21.75;40.88;95026.69;6202837;28;103288;-67
2022/12/17 13:26:43;;;;;;;14.53;13.33;;;;;;;21.78;40.53;95034.06;6213302;28;103393;-66
2022/12/17 13:29:47;;;;;;;15.07;13.77;;;;;;;21.78;40.77;95031.41;6212771;28;104376;-67
2022/12/17 13:32:59;;;;;;;14.43;13.33;;;;;;;21.72;41.05;95043.28;6202918;28;103103;-64
2022/12/17 13:36:12;;;;;;;15.37;14.07;;;;;;;21.78;40.99;95050.84;6212288;28;104540;-66
2022/12/17 13:39:29;;;;;;;14.33;13.13;;;;;;;21.79;41.04;95051.63;6213028;28;103349;-65
2022/12/17 13:42:36;;;;;;;13.37;12.30;;;;;;;21.76;40.70;95038.91;6212987;28;104290;-65
2022/12/17 13:45:39;;;;;;;13.10;12.10;;;;;;;21.78;40.92;95060.72;6202332;28;105398;-65
2022/12/17 13:48:42;;;;;;;14.50;13.40;;;;;;;21.78;40.86;95060.72;6212633;28;103042;-65
2022/12/17 13:51:46;;;;;;;13.17;12.07;;;;;;;21.78;40.46;95044.72;6212833;28;105179;-65
2022/12/17 13:54:50;;;;;;;14.10;12.90;;;;;;;21.77;40.81;95059.13;6208150;28;103157;-64
2022/12/17 13:57:56;;;;;;;14.13;13.00;;;;;;;21.77;40.38;95067.13;6206390;28;103043;-65
2022/12/17 14:01:07;;;;;;;13.20;12.07;;;;;;;21.75;40.79;95074.63;6212280;28;103463;-66
2022/12/17 14:04:20;;;;;;;13.47;12.37;;;;;;;21.76;40.48;95069.00;6210733;28;103153;-66
2022/12/17 14:07:24;;;;;;;13.03;11.93;;;;;;;21.75;40.28;95071.97;6200434;28;103067;-65
2022/12/17 14:10:29;;;;;;;12.53;11.53;;;;;;;21.67;40.81;95064.69;6212762;28;104175;-65
2022/12/17 14:13:35;;;;;;;13.83;12.73;;;;;;;21.75;40.71;95082.63;6211900;28;103237;-65
2022/12/17 14:16:41;;;;;;;12.00;10.90;;;;;;;21.76;40.54;95089.53;6212151;28;104171;-65
2022/12/17 14:19:59;;;;;;;12.67;11.67;;;;;;;21.75;40.72;95086.09;6201978;28;104212;-65
2022/12/17 14:23:06;;;;;;;12.77;11.73;;;;;;;21.69;40.63;95068.66;6211927;28;103343;-65
2022/12/17 14:26:10;;;;;;;12.40;11.40;;;;;;;21.75;40.86;95090.63;6212188;28;103278;-65
2022/12/17 14:29:14;;;;;;;11.43;10.50;;;;;;;21.75;40.13;95082.63;6206992;27;103128;-64
2022/12/17 14:32:33;;;;;;;11.07;10.27;;;;;;;21.64;40.37;95075.97;6207756;28;104293;-64
2022/12/17 14:35:39;;;;;;;12.00;11.00;;;;;;;21.75;40.55;95109.28;6212994;28;104479;-65
2022/12/17 14:38:52;;;;;;;11.50;10.60;;;;;;;21.68;40.17;95066.28;6211303;28;102977;-65
2022/12/17 14:45:25;;;;;;;11.20;10.30;;;;;;;21.75;40.67;95114.59;6211716;28;103226;-65
2022/12/17 14:48:59;;;;;;;11.87;10.87;;;;;;;21.73;40.23;95084.81;6211821;28;103982;-65
2022/12/17 14:51:51;;;;;;;11.63;10.60;;;;;;;21.73;40.22;95087.47;6205808;28;103507;-66
2022/12/17 14:54:54;;;;;;;11.83;10.83;;;;;;;21.74;40.50;95118.34;6206375;28;104340;-65
2022/12/17 14:58:14;;;;;;;10.60;9.70;;;;;;;21.73;40.24;95122.88;6211250;28;103117;-66
2022/12/17 15:01:18;;;;;;;11.33;10.43;;;;;;;21.73;40.25;95095.47;6212126;28;103427;-66
2022/12/17 15:04:22;;;;;;;10.27;9.47;;;;;;;21.72;40.29;95099.22;6200202;28;103546;-66
2022/12/17 15:07:30;;;;;;;10.20;9.40;;;;;;;21.72;40.20;95128.53;6210678;28;103244;-66
2022/12/17 15:10:33;;;;;;;11.17;10.27;;;;;;;21.73;40.50;95122.09;6210359;28;103223;-65
2022/12/17 15:13:36;;;;;;;10.17;9.37;;;;;;;21.73;40.56;95114.09;6210237;28;103081;-65
2022/12/17 15:16:41;;;;;;;9.50;8.80;;;;;;;21.73;40.07;95124.75;6200417;28;103395;-66
2022/12/17 15:19:44;;;;;;;10.33;9.43;;;;;;;21.71;40.11;95140.25;6211326;28;103371;-66
2022/12/17 15:22:47;;;;;;;10.60;9.77;;;;;;;21.71;40.20;95134.94;6210804;28;103173;-65
2022/12/17 15:25:52;;;;;;;9.90;9.10;;;;;;;21.72;40.09;95141.84;6206695;27;104172;-66
2022/12/17 15:28:55;;;;;;;10.50;9.60;;;;;;;21.72;40.51;95147.94;6204346;28;103140;-66
2022/12/17 15:32:01;;;;;;;10.93;10.13;;;;;;;21.48;40.33;95120.78;6211156;28;103220;-66
2022/12/17 15:35:05;;;;;;;9.97;9.17;;;;;;;21.71;40.19;95154.38;6211192;28;104257;-66
2022/12/17 15:38:08;;;;;;;9.37;8.67;;;;;;;21.71;40.50;95157.03;6200687;28;103239;-66
2022/12/17 15:44:32;;;;;;;9.57;8.80;;;;;;;21.71;40.45;95145.59;6211124;28;104511;-66
2022/12/17 15:47:36;;;;;;;9.20;8.50;;;;;;;21.72;40.25;95157.81;6210479;28;103193;-65
2022/12/17 15:50:40;;;;;;;9.23;8.53;;;;;;;21.71;40.40;95162.34;6199630;28;104135;-66
2022/12/17 15:53:43;;;;;;;10.10;9.30;;;;;;;21.71;40.17;95157.03;6211381;28;104172;-66
2022/12/17 15:56:53;;;;;;;9.23;8.50;;;;;;;21.71;40.14;95156.25;6210748;28;103073;-66
2022/12/17 15:59:56;;;;;;;9.30;8.60;;;;;;;21.71;40.52;95157.03;6205587;28;103020;-67
2022/12/17 16:03:00;;;;;;;9.30;8.60;;;;;;;21.67;40.31;95145.38;6204701;28;102863;-66
2022/12/17 16:06:04;;;;;;;9.00;8.30;;;;;;;21.73;40.27;95154.06;6210114;28;103089;-66
2022/12/17 16:09:07;;;;;;;8.77;8.17;;;;;;;21.73;40.40;95168.16;6210245;28;103169;-65
2022/12/17 16:12:10;;;;;;;9.33;8.63;;;;;;;21.74;40.44;95163.63;6197929;28;104233;-64
2022/12/17 16:15:14;;;;;;;9.10;8.40;;;;;;;21.70;40.11;95158.13;6210533;28;104186;-65
2022/12/17 16:18:18;;;;;;;8.67;7.97;;;;;;;21.76;40.35;95196.06;6210240;28;104213;-65
2022/12/17 16:21:21;;;;;;;8.53;7.83;;;;;;;21.76;39.88;95185.41;6210167;28;103061;-66
2022/12/17 16:24:24;;;;;;;8.67;7.97;;;;;;;21.74;40.48;95198.25;6200395;27;103322;-65
2022/12/17 16:27:28;;;;;;;8.40;7.70;;;;;;;21.76;40.23;95196.88;6212593;28;103548;-66
2022/12/17 16:30:31;;;;;;;8.67;7.90;;;;;;;21.77;40.36;95208.31;6214291;28;104266;-65
2022/12/17 16:33:37;;;;;;;8.17;7.57;;;;;;;21.77;40.05;95213.63;6214974;28;103133;-65
2022/12/17 16:36:40;;;;;;;7.67;7.10;;;;;;;21.76;40.11;95212.84;6204542;28;103087;-65
2022/12/17 16:39:43;;;;;;;9.17;8.40;;;;;;;21.76;40.39;95217.38;6213999;28;103271;-65
2022/12/17 16:42:46;;;;;;;9.00;8.30;;;;;;;21.75;40.12;95205.16;6213005;28;104253;-65
2022/12/17 16:45:51;;;;;;;7.90;7.30;;;;;;;21.76;39.97;95220.84;6205379;28;104178;-65
2022/12/17 16:48:58;;;;;;;7.90;7.30;;;;;;;21.76;40.05;95231.50;6213470;28;104273;-65
2022/12/17 16:52:02;;;;;;;8.57;7.87;;;;;;;21.77;40.21;95240.28;6213964;28;104229;-66
2022/12/17 16:55:06;;;;;;;7.30;6.70;;;;;;;21.77;39.84;95229.63;6213913;28;103138;-65
2022/12/17 16:58:09;;;;;;;7.87;7.23;;;;;;;21.74;40.32;95235.53;6203680;28;103720;-65
2022/12/17 17:01:13;;;;;;;8.13;7.40;;;;;;;21.76;40.33;95236.03;6213987;28;103200;-65
2022/12/17 17:04:19;;;;;;;8.50;7.80;;;;;;;21.72;40.18;95233.19;6213258;28;103190;-65
2022/12/17 17:07:22;;;;;;;7.53;6.93;;;;;;;21.76;40.01;95244.03;6213850;28;104438;-65
2022/12/17 17:10:26;;;;;;;8.27;7.57;;;;;;;21.76;40.12;95244.03;6203232;28;103293;-64
2022/12/17 17:13:29;;;;;;;8.20;7.50;;;;;;;21.69;40.26;95243.66;6211922;28;103202;-64
2022/12/17 17:16:32;;;;;;;8.27;7.63;;;;;;;21.75;39.86;95245.91;6213787;28;104217;-65
2022/12/17 17:19:37;;;;;;;9.00;8.30;;;;;;;21.75;40.10;95259.22;6207761;28;103417;-65
2022/12/17 17:22:40;;;;;;;8.80;8.10;;;;;;;21.75;40.26;95258.44;6207718;28;102830;-65
2022/12/17 17:25:43;;;;;;;8.20;7.60;;;;;;;21.75;40.23;95263.75;6213098;28;103196;-64
2022/12/17 17:29:00;;;;;;;8.50;7.80;;;;;;;21.74;39.71;95273.63;6212423;28;103186;-65
2022/12/17 17:32:03;;;;;;;8.00;7.40;;;;;;;21.76;40.16;95273.31;6203644;28;104042;-65
2022/12/17 17:35:17;;;;;;;8.53;7.83;;;;;;;21.75;40.02;95277.88;6212758;28;103190;-66
2022/12/17 17:38:20;;;;;;;8.93;8.20;;;;;;;21.75;39.72;95277.88;6213103;28;103147;-64
2022/12/17 17:41:26;;;;;;;8.40;7.70;;;;;;;21.75;40.12;95282.41;6212141;28;103196;-64
2022/12/17 17:44:29;;;;;;;8.53;7.83;;;;;;;21.75;40.17;95290.38;6202166;28;103425;-65
2022/12/17 17:47:32;;;;;;;7.80;7.20;;;;;;;21.70;39.72;95277.19;6212942;28;107003;-65
2022/12/17 17:50:36;;;;;;;8.27;7.57;;;;;;;21.75;39.94;95293.06;6211786;28;103113;-65
2022/12/17 17:53:40;;;;;;;8.17;7.47;;;;;;;21.74;39.79;95299.47;6207628;27;103239;-66
2022/12/17 17:56:43;;;;;;;8.20;7.50;;;;;;;21.74;40.42;95288.81;6207182;28;104152;-65
2022/12/17 17:59:46;;;;;;;9.87;8.97;;;;;;;21.73;40.39;95305.88;6212662;28;104166;-65
2022/12/17 18:02:49;;;;;;;7.73;7.13;;;;;;;21.74;40.05;95297.59;6211888;28;102826;-65
2022/12/17 18:05:54;;;;;;;9.00;8.20;;;;;;;21.75;40.26;95309.03;6202287;28;105141;-65
2022/12/17 18:08:58;;;;;;;8.53;7.77;;;;;;;21.75;39.94;95317.03;6212256;28;103131;-65
2022/12/17 18:13:53;;;;;;;8.57;7.87;;;;;;;21.74;40.19;95326.09;6211248;28;103104;-65
2022/12/17 18:15:24;;;;;;;7.43;6.83;;;;;;;21.75;39.71;95335.69;6211236;28;103549;-65
2022/12/17 18:18:27;;;;;;;8.60;7.90;;;;;;;21.75;39.77;95336.47;6200170;28;103068;-65
2022/12/17 18:21:32;;;;;;;8.00;7.30;;;;;;;21.66;40.01;95329.44;6211778;28;103223;-65
2022/12/17 18:24:35;;;;;;;7.73;7.13;;;;;;;21.75;40.02;95354.31;6211965;28;103183;-65
2022/12/17 18:27:39;;;;;;;7.47;6.77;;;;;;;21.74;40.17;95356.19;6206361;28;103263;-65
2022/12/17 18:30:44;;;;;;;8.90;8.20;;;;;;;21.76;39.71;95361.22;6206450;28;103718;-66
2022/12/17 18:33:49;;;;;;;8.57;7.87;;;;;;;21.75;40.13;95364.97;6211384;28;103651;-65
2022/12/17 18:36:54;;;;;;;8.70;7.90;;;;;;;21.74;39.90;95366.06;6211947;28;103204;-65
2022/12/17 18:39:57;;;;;;;8.03;7.40;;;;;;;21.75;39.90;95375.63;6201260;28;103335;-64
2022/12/17 18:46:20;;;;;;;7.70;7.00;;;;;;;21.74;39.83;95379.38;6210893;28;104416;-65
2022/12/17 18:49:26;;;;;;;7.60;7.00;;;;;;;21.75;40.16;95378.28;6210704;28;104684;-65
2022/12/17 18:52:31;;;;;;;8.00;7.30;;;;;;;21.75;39.79;95399.59;6201035;28;103901;-65
2022/12/17 18:55:39;;;;;;;7.37;6.77;;;;;;;21.74;40.25;95406.81;6210833;28;103371;-66
2022/12/17 18:58:42;;;;;;;7.97;7.27;;;;;;;21.73;39.90;95410.56;6210866;28;103116;-65
2022/12/17 19:01:46;;;;;;;7.47;6.87;;;;;;;21.74;39.80;95417.47;6205756;28;103505;-65
2022/12/17 19:04:50;;;;;;;8.00;7.40;;;;;;;21.74;39.63;95425.44;6205844;28;104422;-65
2022/12/17 19:07:54;;;;;;;8.57;7.87;;;;;;;21.75;40.16;95428.91;6211126;28;103555;-65
2022/12/17 19:11:04;;;;;;;7.50;6.90;;;;;;;21.75;40.01;95435.03;6209658;28;103011;-65
2022/12/17 19:14:07;;;;;;;7.23;6.63;;;;;;;21.74;39.76;95441.44;6200507;27;103466;-65
2022/12/17 19:17:10;;;;;;;7.60;7.00;;;;;;;21.75;39.94;95447.56;6209851;28;104171;-65
2022/12/17 19:20:13;;;;;;;7.83;7.23;;;;;;;21.74;39.80;95448.63;6210686;28;103227;-65
2022/12/17 19:23:17;;;;;;;7.40;6.80;;;;;;;21.73;39.67;95450.50;6210840;28;104720;-65
2022/12/17 19:26:21;;;;;;;8.00;7.30;;;;;;;21.71;40.13;95449.22;6199034;28;103072;-65
2022/12/17 19:29:24;;;;;;;8.43;7.73;;;;;;;21.66;39.72;95436.75;6210587;28;103222;-66
2022/12/17 19:32:28;;;;;;;7.27;6.70;;;;;;;21.72;39.73;95451.59;6210073;28;103100;-66
2022/12/17 19:35:31;;;;;;;7.43;6.83;;;;;;;21.74;40.00;95457.41;6207595;28;104286;-66
2022/12/17 19:38:35;;;;;;;7.23;6.63;;;;;;;21.74;40.04;95459.28;6205182;28;103679;-66
2022/12/17 19:41:39;;;;;;;7.53;6.93;;;;;;;21.75;39.59;95463.53;6210430;28;104036;-66
2022/12/17 19:44:43;;;;;;;8.40;7.70;;;;;;;21.75;40.14;95460.88;6210684;28;104340;-66
2022/12/17 19:47:46;;;;;;;8.00;7.30;;;;;;;21.74;39.64;95456.63;6199820;28;103194;-66
2022/12/17 19:50:56;;;;;;;7.50;6.90;;;;;;;21.75;39.96;95458.22;6209605;28;103282;-66
2022/12/17 19:54:00;;;;;;;8.20;7.50;;;;;;;21.73;39.60;95447.84;6209657;28;103158;-66
2022/12/17 19:57:10;;;;;;;7.77;7.10;;;;;;;21.76;40.03;95473.09;6209605;28;102936;-66
2022/12/17 20:00:14;;;;;;;8.10;7.40;;;;;;;21.75;40.10;95469.66;6201424;28;104207;-66
2022/12/17 20:03:17;;;;;;;7.47;6.87;;;;;;;21.76;40.02;95483.75;6213274;28;103289;-66
2022/12/17 20:06:23;;;;;;;7.03;6.43;;;;;;;21.73;39.96;95479.03;6214372;28;103031;-65
2022/12/17 20:09:28;;;;;;;7.40;6.80;;;;;;;21.72;39.86;95483.56;6213681;28;103213;-65
2022/12/17 20:12:31;;;;;;;7.33;6.73;;;;;;;21.63;39.72;95476.50;6205545;28;103687;-65
2022/12/17 20:15:34;;;;;;;7.30;6.70;;;;;;;21.71;39.67;95492.63;6214609;28;103164;-65
2022/12/17 20:18:37;;;;;;;7.13;6.53;;;;;;;21.69;39.88;95496.69;6213133;28;104137;-65
2022/12/17 20:21:40;;;;;;;7.57;6.97;;;;;;;21.69;39.79;95504.66;6204230;28;103308;-64
2022/12/17 20:24:45;;;;;;;7.07;6.47;;;;;;;21.66;39.76;95506.00;6212483;28;103520;-66
2022/12/17 20:27:48;;;;;;;7.00;6.50;;;;;;;21.68;39.75;95511.06;6213715;28;103051;-65
2022/12/17 20:30:54;;;;;;;6.50;5.90;;;;;;;21.67;39.54;95520.13;6213858;28;103159;-65
2022/12/17 20:34:00;;;;;;;7.33;6.63;;;;;;;21.68;40.04;95513.75;6202161;28;103541;-65
2022/12/17 20:37:03;;;;;;;6.80;6.30;;;;;;;21.67;39.85;95523.56;6214046;28;103188;-66
2022/12/17 20:40:09;;;;;;;7.37;6.77;;;;;;;21.68;39.87;95524.41;6213318;28;103239;-65
2022/12/17 20:43:12;;;;;;;6.57;6.07;;;;;;;21.68;39.84;95527.06;6213300;28;103220;-65
2022/12/17 20:46:16;;;;;;;6.90;6.30;;;;;;;21.67;39.66;95528.13;6201897;28;103589;-66
2022/12/17 20:49:19;;;;;;;6.53;6.03;;;;;;;21.67;39.61;95528.91;6212640;28;102980;-65
2022/12/17 20:52:22;;;;;;;6.90;6.30;;;;;;;21.68;40.07;95537.72;6212917;28;103417;-65
2022/12/17 20:55:26;;;;;;;6.73;6.20;;;;;;;21.68;39.82;95546.50;6207387;28;102853;-65
2022/12/17 20:58:33;;;;;;;6.87;6.37;;;;;;;21.68;40.14;95545.69;6207414;28;103026;-65
2022/12/17 21:01:37;;;;;;;6.33;5.83;;;;;;;21.68;40.04;95546.50;6213369;28;106583;-65
2022/12/17 21:04:40;;;;;;;6.33;5.87;;;;;;;21.56;40.06;95535.50;6213258;28;104143;-65
2022/12/17 21:07:43;;;;;;;5.70;5.20;;;;;;;21.68;39.95;95564.34;6202556;27;104163;-66
2022/12/17 21:10:48;;;;;;;6.93;6.33;;;;;;;21.69;39.65;95555.28;6212714;28;102952;-66
2022/12/17 21:13:51;;;;;;;5.77;5.37;;;;;;;21.69;39.94;95555.28;6212117;28;103268;-66
2022/12/17 21:16:54;;;;;;;6.30;5.80;;;;;;;21.69;40.13;95560.59;6212366;28;103141;-65
2022/12/17 21:19:57;;;;;;;6.17;5.67;;;;;;;21.69;39.72;95560.59;6201711;27;102975;-65
2022/12/17 21:23:08;;;;;;;5.97;5.47;;;;;;;21.70;39.73;95580.81;6212668;28;103488;-65
2022/12/17 21:26:15;;;;;;;6.67;6.17;;;;;;;21.70;39.82;95580.81;6212682;28;103201;-65
2022/12/17 21:29:18;;;;;;;6.37;5.87;;;;;;;21.70;39.58;95586.16;6207869;28;103018;-65
2022/12/17 21:32:21;;;;;;;5.43;5.03;;;;;;;21.70;39.83;95586.16;6206541;27;103229;-66
2022/12/17 21:35:24;;;;;;;6.10;5.70;;;;;;;21.70;39.72;95594.94;6212152;28;103032;-66
2022/12/17 21:38:28;;;;;;;6.30;5.70;;;;;;;21.70;40.06;95588.81;6212324;28;104583;-66
2022/12/17 21:41:35;;;;;;;6.03;5.53;;;;;;;21.70;39.62;95588.81;6202842;28;103089;-65
2022/12/17 21:44:38;;;;;;;5.60;5.20;;;;;;;21.67;39.46;95590.16;6212238;28;103512;-66
2022/12/17 21:47:41;;;;;;;5.20;4.80;;;;;;;21.69;39.99;95600.56;6212241;28;103977;-66
2022/12/17 21:50:45;;;;;;;6.83;6.23;;;;;;;21.62;39.85;95587.59;6211875;28;103397;-66
2022/12/17 21:53:53;;;;;;;5.80;5.40;;;;;;;21.69;39.47;95597.91;6201844;28;103202;-66
2022/12/17 21:56:57;;;;;;;6.10;5.60;;;;;;;21.69;39.89;95605.88;6212901;28;107047;-67
2022/12/17 22:00:00;;;;;;;5.00;4.60;;;;;;;21.69;39.60;95601.34;6211382;28;103107;-68
2022/12/17 22:03:04;;;;;;;5.60;5.20;;;;;;;21.67;39.58;95608.81;6211093;28;103189;-66
2022/12/17 22:06:07;;;;;;;5.70;5.30;;;;;;;21.66;39.50;95614.44;6203610;28;103347;-66
2022/12/17 22:09:11;;;;;;;5.97;5.57;;;;;;;21.69;39.79;95616.53;6211717;28;104227;-66
2022/12/17 22:15:44;;;;;;;5.50;5.10;;;;;;;21.67;39.47;95619.47;6201002;28;104267;-67
2022/12/17 22:18:50;;;;;;;5.53;5.13;;;;;;;21.63;39.97;95609.69;6212048;28;103988;-66
2022/12/17 22:21:53;;;;;;;5.60;5.20;;;;;;;21.67;39.60;95621.34;6210832;28;103508;-66
2022/12/17 22:24:59;;;;;;;5.33;4.93;;;;;;;21.64;39.58;95620.03;6209931;28;103283;-66
2022/12/17 22:28:12;;;;;;;5.10;4.70;;;;;;;21.68;39.67;95631.72;6201550;28;103317;-66
2022/12/17 22:34:38;;;;;;;5.10;4.70;;;;;;;21.68;39.94;95622.94;6211918;28;103006;-66
2022/12/17 22:38:02;;;;;;;5.37;4.97;;;;;;;21.68;39.31;95623.75;6201193;28;103064;-66
2022/12/17 22:45:08;;;;;;;5.20;4.80;;;;;;;21.68;39.86;95628.28;6211575;28;103055;-66
2022/12/17 22:48:14;;;;;;;4.80;4.47;;;;;;;21.69;39.42;95637.84;6211445;28;102706;-66
2022/12/17 22:51:17;;;;;;;5.03;4.63;;;;;;;21.68;39.73;95636.25;6200486;28;102988;-66
2022/12/17 22:54:39;;;;;;;5.10;4.70;;;;;;;21.66;39.91;95643.72;6209867;28;103182;-66
2022/12/17 22:57:43;;;;;;;5.00;4.60;;;;;;;21.68;39.56;95646.91;6211568;28;103116;-66
2022/12/17 23:00:47;;;;;;;4.70;4.40;;;;;;;21.65;39.57;95644.81;6201017;28;103147;-66
2022/12/17 23:03:54;;;;;;;4.73;4.33;;;;;;;21.66;39.81;95649.84;6210450;28;102962;-66
2022/12/17 23:06:57;;;;;;;4.30;4.00;;;;;;;21.66;39.63;95647.19;6210480;28;103317;-66
2022/12/17 23:10:00;;;;;;;4.73;4.33;;;;;;;21.63;39.50;95660.28;6210379;28;103179;-65
2022/12/17 23:13:03;;;;;;;4.47;4.17;;;;;;;21.66;39.39;95665.81;6203028;28;104057;-66
2022/12/17 23:16:09;;;;;;;4.63;4.33;;;;;;;21.66;39.55;95676.47;6210730;28;103299;-66
2022/12/17 23:19:13;;;;;;;5.00;4.60;;;;;;;21.65;39.31;95668.78;6210815;28;103054;-66
2022/12/17 23:22:16;;;;;;;4.80;4.40;;;;;;;21.66;39.60;95681.81;6210227;28;103276;-66
2022/12/17 23:25:24;;;;;;;4.07;3.77;;;;;;;21.67;39.31;95685.25;6199978;28;103223;-67
2022/12/17 23:28:27;;;;;;;4.30;4.00;;;;;;;21.65;39.43;95690.09;6211107;28;104199;-66
2022/12/17 23:31:34;;;;;;;4.67;4.27;;;;;;;21.65;39.51;95688.22;6210783;28;102757;-66
2022/12/17 23:34:38;;;;;;;5.00;4.60;;;;;;;21.64;39.44;95689.28;6204336;28;103049;-66
2022/12/17 23:37:41;;;;;;;4.33;4.03;;;;;;;21.66;39.71;95694.34;6207450;28;103299;-66
2022/12/17 23:40:44;;;;;;;4.07;3.77;;;;;;;21.65;39.47;95693.53;6210909;28;104117;-66
2022/12/17 23:43:48;;;;;;;4.53;4.23;;;;;;;21.56;39.40;95691.81;6210136;28;103032;-66
2022/12/17 23:46:53;;;;;;;4.40;4.10;;;;;;;21.66;39.61;95710.31;6200291;28;103216;-66
2022/12/17 23:49:56;;;;;;;3.40;3.20;;;;;;;21.65;39.58;95714.06;6210270;28;103174;-66
2022/12/17 23:52:59;;;;;;;4.33;4.03;;;;;;;21.65;39.24;95720.19;6209914;28;103209;-66
2022/12/17 23:56:07;;;;;;;4.00;3.70;;;;;;;21.65;39.35;95722.03;6209300;28;103197;-66
2022/12/17 23:59:10;;;;;;;3.63;3.33;;;;;;;21.64;39.67;95720.47;6199828;28;103827;-66
